createdAt,value
2023-04-07T00:02:27.315Z,7.60
2023-04-07T00:07:29.608Z,7.60
2023-04-07T00:12:31.816Z,7.50
2023-04-07T00:17:34.018Z,7.40
2023-04-07T00:22:36.106Z,7.40
2023-04-07T00:27:38.748Z,7.40
2023-04-07T00:32:41.249Z,7.30
2023-04-07T00:37:43.675Z,7.40
2023-04-07T00:42:45.884Z,7.40
2023-04-07T00:47:48.040Z,7.30
2023-04-07T00:52:50.795Z,7.20
2023-04-07T00:57:52.960Z,7.00
2023-04-07T01:03:04.577Z,6.80
2023-04-07T01:08:33.146Z,6.80
2023-04-07T01:13:50.595Z,6.70
2023-04-07T01:19:33.663Z,6.70
2023-04-07T01:24:54.865Z,6.50
2023-04-07T01:30:01.172Z,6.20
2023-04-07T01:35:06.392Z,6.20
2023-04-07T01:40:09.778Z,6.20
2023-04-07T01:45:12.178Z,6.20
2023-04-07T01:50:14.615Z,6.20
2023-04-07T01:55:17.181Z,6.20
2023-04-07T02:00:29.555Z,6.20
2023-04-07T02:05:33.971Z,6.30
2023-04-07T02:10:38.753Z,6.30
2023-04-07T02:15:42.497Z,6.20
2023-04-07T02:20:46.390Z,5.90
2023-04-07T02:25:48.684Z,5.90
2023-04-07T02:30:50.928Z,5.90
2023-04-07T02:35:53.086Z,5.90
2023-04-07T02:40:56.605Z,5.90
2023-04-07T02:45:58.766Z,5.90
2023-04-07T02:51:00.958Z,5.80
2023-04-07T02:56:03.130Z,5.80
2023-04-07T03:01:05.878Z,5.80
2023-04-07T03:06:09.808Z,5.80
2023-04-07T03:11:21.048Z,5.80
2023-04-07T03:16:23.302Z,5.70
2023-04-07T03:21:38.135Z,5.60
2023-04-07T03:26:40.390Z,5.40
2023-04-07T03:31:51.623Z,5.30
2023-04-07T03:36:57.174Z,5.30
2023-04-07T03:41:59.507Z,5.40
2023-04-07T03:47:04.951Z,5.40
2023-04-07T03:52:08.686Z,5.50
2023-04-07T03:57:11.874Z,5.50
2023-04-07T04:02:19.779Z,5.50
2023-04-07T04:07:27.399Z,5.20
2023-04-07T04:12:34.496Z,5.10
2023-04-07T04:17:44.199Z,5.20
2023-04-07T04:22:47.879Z,5.00
2023-04-07T04:27:50.464Z,5.00
2023-04-07T04:32:56.423Z,5.10
2023-04-07T04:38:07.942Z,5.10
2023-04-07T04:43:12.640Z,5.10
2023-04-07T04:48:17.397Z,5.10
2023-04-07T04:53:19.962Z,4.80
2023-04-07T04:58:31.296Z,4.90
2023-04-07T05:03:33.682Z,4.90
2023-04-07T05:08:39.253Z,4.90
2023-04-07T05:13:42.196Z,4.90
2023-04-07T05:18:44.301Z,4.80
2023-04-07T05:23:46.846Z,4.60
2023-04-07T05:28:49.553Z,4.70
2023-04-07T05:33:55.537Z,4.70
2023-04-07T05:39:01.552Z,4.80
2023-04-07T05:44:04.149Z,4.60
2023-04-07T05:49:19.481Z,4.60
2023-04-07T05:54:25.726Z,4.60
2023-04-07T05:59:28.596Z,4.60
2023-04-07T06:04:31.603Z,4.70
2023-04-07T06:09:35.870Z,4.70
2023-04-07T06:14:38.727Z,4.60
2023-04-07T06:19:41.085Z,4.60
2023-04-07T06:24:43.512Z,4.60
2023-04-07T06:29:45.707Z,4.60
2023-04-07T06:34:48.257Z,4.60
2023-04-07T06:39:50.759Z,4.40
2023-04-07T06:44:53.765Z,4.40
2023-04-07T06:49:55.965Z,4.50
2023-04-07T06:54:58.073Z,4.70
2023-04-07T07:00:00.610Z,4.90
2023-04-07T07:05:04.755Z,4.90
2023-04-07T07:10:10.968Z,4.90
2023-04-07T07:15:13.093Z,4.90
2023-04-07T07:20:15.333Z,5.00
2023-04-07T07:25:17.445Z,5.20
2023-04-07T07:30:21.503Z,5.40
2023-04-07T07:35:25.250Z,5.60
2023-04-07T07:40:27.273Z,5.80
2023-04-07T07:45:29.409Z,6.10
2023-04-07T07:50:31.728Z,6.30
2023-04-07T07:55:33.850Z,6.40
2023-04-07T08:00:36.128Z,6.60
2023-04-07T08:05:38.285Z,6.80
2023-04-07T08:10:40.441Z,6.90
2023-04-07T08:15:42.901Z,7.10
2023-04-07T08:20:44.994Z,7.20
2023-04-07T08:25:47.032Z,7.40
2023-04-07T08:30:49.190Z,7.60
2023-04-07T08:35:51.280Z,7.70
2023-04-07T08:41:01.380Z,7.80
2023-04-07T08:46:04.139Z,8.00
2023-04-07T08:51:10.843Z,8.30
2023-04-07T08:56:13.324Z,8.60
2023-04-07T09:01:16.618Z,8.80
2023-04-07T09:06:18.753Z,9.00
2023-04-07T09:11:22.464Z,9.30
2023-04-07T09:16:25.651Z,9.40
2023-04-07T09:21:46.742Z,9.90
2023-04-07T09:26:50.070Z,10.10
2023-04-07T09:31:53.542Z,10.10
2023-04-07T09:36:57.404Z,10.40
2023-04-07T09:42:06.662Z,10.50
2023-04-07T09:47:08.807Z,10.70
2023-04-07T09:52:11.171Z,10.90
2023-04-07T09:57:18.629Z,11.00
2023-04-07T10:02:23.113Z,11.20
2023-04-07T10:07:26.117Z,11.30
2023-04-07T10:12:31.250Z,11.50
2023-04-07T10:17:36.236Z,11.60
2023-04-07T10:22:41.400Z,11.60
2023-04-07T10:28:03.792Z,11.70
2023-04-07T10:33:06.103Z,11.90
2023-04-07T10:38:08.363Z,12.00
2023-04-07T10:43:15.033Z,12.00
2023-04-07T10:48:18.619Z,12.20
2023-04-07T10:53:20.791Z,12.40
2023-04-07T10:58:26.645Z,12.60
2023-04-07T11:03:29.830Z,12.80
2023-04-07T11:08:40.033Z,12.70
2023-04-07T11:13:49.227Z,12.70
2023-04-07T11:18:57.671Z,13.20
2023-04-07T11:23:59.819Z,13.80
2023-04-07T11:29:02.246Z,13.90
2023-04-07T11:34:05.244Z,13.80
2023-04-07T11:39:20.372Z,13.90
2023-04-07T11:44:22.674Z,13.90
2023-04-07T11:49:27.938Z,14.30
2023-04-07T11:54:47.308Z,14.90
2023-04-07T11:59:50.285Z,15.50
2023-04-07T12:04:57.530Z,15.40
2023-04-07T12:10:18.738Z,15.50
2023-04-07T12:15:21.692Z,16.10
2023-04-07T12:20:23.790Z,15.10
2023-04-07T12:25:27.658Z,15.20
2023-04-07T12:30:29.763Z,16.10
2023-04-07T12:35:32.383Z,15.90
2023-04-07T12:40:36.357Z,15.50
2023-04-07T12:45:39.412Z,15.60
2023-04-07T12:50:41.649Z,16.30
2023-04-07T12:55:43.709Z,17.00
2023-04-07T13:00:47.770Z,17.80
2023-04-07T13:05:50.275Z,18.40
2023-04-07T13:10:52.372Z,18.10
2023-04-07T13:15:54.704Z,18.40
2023-04-07T13:21:24.920Z,17.50
2023-04-07T13:26:18.960Z,17.00
2023-04-07T13:31:22.191Z,17.80
2023-04-07T13:36:26.351Z,18.20
2023-04-07T13:41:28.455Z,18.10
2023-04-07T13:46:30.762Z,18.10
2023-04-07T13:51:32.971Z,19.10
2023-04-07T13:56:41.169Z,19.70
2023-04-07T14:01:43.464Z,20.10
2023-04-07T14:06:45.588Z,19.60
2023-04-07T14:11:48.441Z,18.70
2023-04-07T14:16:53.401Z,18.60
2023-04-07T14:21:55.916Z,18.80
2023-04-07T14:26:58.313Z,18.60
2023-04-07T14:32:00.424Z,18.20
2023-04-07T14:37:03.451Z,18.60
2023-04-07T14:42:05.590Z,19.00
2023-04-07T14:47:07.683Z,19.00
2023-04-07T14:52:10.579Z,17.90
2023-04-07T14:57:12.701Z,17.50
2023-04-07T15:02:14.850Z,18.20
2023-04-07T15:07:17.076Z,17.30
2023-04-07T15:12:19.585Z,18.20
2023-04-07T15:17:27.518Z,18.40
2023-04-07T15:22:36.101Z,18.00
2023-04-07T15:27:38.220Z,17.40
2023-04-07T15:32:40.453Z,17.70
2023-04-07T15:37:43.303Z,17.30
2023-04-07T15:42:45.892Z,17.50
2023-04-07T15:47:48.022Z,17.60
2023-04-07T15:52:50.248Z,16.60
2023-04-07T15:57:53.297Z,17.00
2023-04-07T16:02:55.821Z,17.70
2023-04-07T16:07:58.445Z,18.00
2023-04-07T16:13:00.616Z,18.00
2023-04-07T16:18:06.619Z,17.50
2023-04-07T16:23:09.653Z,17.50
2023-04-07T16:28:11.831Z,17.00
2023-04-07T16:33:14.550Z,17.00
2023-04-07T16:38:16.966Z,17.10
2023-04-07T16:43:19.661Z,16.90
2023-04-07T16:48:21.749Z,16.10
2023-04-07T16:53:23.837Z,16.10
2023-04-07T16:58:26.024Z,16.50
2023-04-07T17:03:28.293Z,16.90
2023-04-07T17:08:30.671Z,16.80
2023-04-07T17:13:32.966Z,16.50
2023-04-07T17:18:35.215Z,16.10
2023-04-07T17:23:37.502Z,16.20
2023-04-07T17:28:40.791Z,16.00
2023-04-07T17:33:43.095Z,15.50
2023-04-07T17:38:46.084Z,15.10
2023-04-07T17:43:48.378Z,15.10
2023-04-07T17:48:51.474Z,15.20
2023-04-07T17:53:54.287Z,15.10
2023-04-07T17:58:56.820Z,15.10
2023-04-07T18:04:00.243Z,15.10
2023-04-07T18:09:04.588Z,15.10
2023-04-07T18:14:06.689Z,14.90
2023-04-07T18:19:08.947Z,14.60
2023-04-07T18:24:11.549Z,14.40
2023-04-07T18:29:14.804Z,14.10
2023-04-07T18:34:16.967Z,13.80
2023-04-07T18:39:19.273Z,13.60
2023-04-07T18:44:21.391Z,13.30
2023-04-07T18:49:24.540Z,13.00
2023-04-07T18:54:28.567Z,12.60
2023-04-07T18:59:31.480Z,12.30
2023-04-07T19:04:33.603Z,12.10
2023-04-07T19:09:36.810Z,12.00
2023-04-07T19:14:38.923Z,11.90
2023-04-07T19:19:41.176Z,11.80
2023-04-07T19:24:43.274Z,11.60
2023-04-07T19:29:45.385Z,11.50
2023-04-07T19:34:47.464Z,11.50
2023-04-07T19:40:01.585Z,11.30
2023-04-07T19:45:08.242Z,11.30
2023-04-07T19:50:17.668Z,11.20
2023-04-07T19:55:20.048Z,11.10
2023-04-07T20:00:22.284Z,11.10
2023-04-07T20:05:24.344Z,11.00
2023-04-07T20:10:26.579Z,10.90
2023-04-07T20:15:28.803Z,10.90
2023-04-07T20:20:31.200Z,10.80
2023-04-07T20:25:34.876Z,10.70
2023-04-07T20:30:37.067Z,10.70
2023-04-07T20:35:39.185Z,10.50
2023-04-07T20:40:41.711Z,10.50
2023-04-07T20:45:44.717Z,10.50
2023-04-07T20:50:46.919Z,10.50
2023-04-07T20:55:49.123Z,10.40
2023-04-07T21:00:58.298Z,10.30
2023-04-07T21:06:00.552Z,10.30
2023-04-07T21:11:02.683Z,10.40
2023-04-07T21:16:05.746Z,10.40
2023-04-07T21:21:08.261Z,10.30
2023-04-07T21:26:10.556Z,10.20
2023-04-07T21:31:23.865Z,10.10
2023-04-07T21:36:27.149Z,10.10
2023-04-07T21:41:29.232Z,10.00
2023-04-07T21:46:33.225Z,9.90
2023-04-07T21:51:35.347Z,9.90
2023-04-07T21:56:37.479Z,9.90
2023-04-07T22:01:39.692Z,9.80
2023-04-07T22:06:41.874Z,9.80
2023-04-07T22:11:43.967Z,9.90
2023-04-07T22:16:46.260Z,9.80
2023-04-07T22:21:49.494Z,9.60
2023-04-07T22:26:53.854Z,9.60
2023-04-07T22:31:56.041Z,9.50
2023-04-07T22:36:58.144Z,9.50
2023-04-07T22:42:01.020Z,9.50
2023-04-07T22:47:04.278Z,9.40
2023-04-07T22:52:06.702Z,9.30
2023-04-07T22:57:08.960Z,9.30
2023-04-07T23:02:11.307Z,9.30
2023-04-07T23:07:13.456Z,9.30
2023-04-07T23:12:15.713Z,9.30
2023-04-07T23:17:17.840Z,9.20
2023-04-07T23:22:20.092Z,9.20
2023-04-07T23:27:22.184Z,9.30
2023-04-07T23:32:24.391Z,9.20
2023-04-07T23:37:26.458Z,9.20
2023-04-07T23:42:28.563Z,9.20
2023-04-07T23:47:30.929Z,9.00
2023-04-07T23:52:33.115Z,8.90
2023-04-07T23:57:35.239Z,8.80
